Aérodrome :
LOGIN :

S'inscrire | Disclaimer

   EN    FR    IT 

 










Légende :    VFR   VFR Marginal   IFR   IFR Intensif   IFR Très Intensif
Visi : 
Plafond : 
>= 8 km
>= 3000ft
5 à 8 km
1000 à 3000 ft
1500m à 5 km
500 à 1000 ft
800 à 1500m
200 à 500 ft
< 800m
< 200 ft
Symboles :   Orages  Brouillard  Fortes neiges  Fortes précipitations  Vent > 20 kt
SIGMETs :   Divers  Orages  Givrage  Turbulence  Onde Orograph.  Cendres Volcan.







- Altitude de l'aérodrome : 939 ft


LKKB - Kbely Air Base

DERNIER METAR :
  • 230600Z VRB02KT CAVOK 08/05 Q1013 NOSIG

METARs EXPIRÉS :
  • 230500Z 02006KT CAVOK 07/05 Q1012 NOSIG
  • 230400Z 04006KT CAVOK 08/05 Q1012 NOSIG
  • 230000Z 07002KT CAVOK 10/05 Q1012

TAF TAF LKKB
Valide du 23 à 06h jusqu'au 24 à 06h UTC


230500Z 2306/2406 08004KT CAVOK
BECMG 2306/2308 VRB02KT
BECMG 2322/2400 28005KT 9999 BKN030
TEMPO 2400/2405 3000 BR
Pas de NOTAMs connus pour ce terrain.



MET'MAP, la Météo Aéronautique d'un coup d'oeil ! - Copyright ORBIFLY Décembre 2007 - Disclaimer

ORBIFLY MET'MAP TEAM :

Programmation & Développement : Alexandra Zaïnal
Conception & Développement : Baudouin d'Aumeries
Co-Programmation & Développement : Marc-Olivier Méhu
Soutien technique & logistique : Manuel Goepfert

Contact : metmap@orbifly.com




SOURCES & CREDITS :

   NOAA